Main page
METAR-TAF:

METAR-TAF

Airports :

Brunei International Airport

Brunei, Brunei

latitude: 04-56N, longitude: 114-56E, elevation: 22 m

Current weather observation

The report was made 26 minutes ago, at 23:00 UTC
Wind 1 kt from the Southwest
Temperature 25°C
Humidity 100%
Pressure 1011 hPa
Visibility 10 km or more
Few clouds at a height of 1400 ft
Few clouds at a height of 1500 ft, Cumulonimbus.
Broken clouds at a height of 14000 ft

METAR: WBSB 212300Z 23001KT 9999 FEW014 FEW015CB BKN140 25/25 Q1011 NOSIG

Time: 07:26 (23:26 UTC)

Forecast

The report was made 6 hours and 26 minutes ago, at 17:00 UTC
Forecast valid from 21 at 18 UTC to 23 at 00 UTC
Wind 7 kt from the North/Northeast
Visibility 10 km or more
Few clouds at a height of 1500 ft
Becoming
from 22 at 03 UTC to 22 at 05 UTC
Scattered clouds at a height of 1600 ft

TAF: WBSB 211700Z 2118/2300 02007KT 9999 FEW015 BECMG 2203/2205 SCT016

Weather observations and forecasts of more than 4000 airports (METAR and TAF reports).

The available stations are represented by yellow and red dots on the map.

Hover mouse over dot to see the name of the station.

Then click to see weather observations and forecasts.

To change the map : click on the green buttons with a black cross to zoom in, on the green button with a dash to zoom out, or on the green arrows for adjacent maps.


METAR-TAF: